createdAt,value
2024-03-03T00:01:44.418Z,6.95
2024-03-03T00:04:12.112Z,6.89
2024-03-03T00:06:44.473Z,6.86
2024-03-03T00:09:13.202Z,6.88
2024-03-03T00:11:39.888Z,6.95
2024-03-03T00:14:08.970Z,7.01
2024-03-03T00:16:36.205Z,6.92
2024-03-03T00:19:02.987Z,6.84
2024-03-03T00:21:31.518Z,6.83
2024-03-03T00:24:01.359Z,6.83
2024-03-03T00:26:28.647Z,6.83
2024-03-03T00:28:55.529Z,6.80
2024-03-03T00:31:22.652Z,6.79
2024-03-03T00:33:50.010Z,6.77
2024-03-03T00:36:16.675Z,6.77
2024-03-03T00:38:43.467Z,6.70
2024-03-03T00:41:11.321Z,6.61
2024-03-03T00:43:38.779Z,6.64
2024-03-03T00:46:06.591Z,6.67
2024-03-03T00:48:33.586Z,6.76
2024-03-03T00:51:01.183Z,6.69
2024-03-03T00:53:28.047Z,6.67
2024-03-03T00:55:54.709Z,6.64
2024-03-03T00:58:23.496Z,6.64
2024-03-03T01:00:50.368Z,6.64
2024-03-03T01:03:17.201Z,6.60
2024-03-03T01:05:44.069Z,6.60
2024-03-03T01:08:12.450Z,6.55
2024-03-03T01:10:41.285Z,6.48
2024-03-03T01:13:08.335Z,6.46
2024-03-03T01:15:37.030Z,6.44
2024-03-03T01:18:06.036Z,6.38
2024-03-03T01:20:35.347Z,6.31
2024-03-03T01:23:02.189Z,6.28
2024-03-03T01:25:32.720Z,6.22
2024-03-03T01:27:59.544Z,6.15
2024-03-03T01:30:27.217Z,6.15
2024-03-03T01:32:56.052Z,6.01
2024-03-03T01:35:23.785Z,5.89
2024-03-03T01:37:51.886Z,5.81
2024-03-03T01:40:18.629Z,5.78
2024-03-03T01:42:45.623Z,5.70
2024-03-03T01:45:23.791Z,5.63
2024-03-03T01:47:55.627Z,5.52
2024-03-03T01:50:25.561Z,5.50
2024-03-03T01:52:54.370Z,5.44
2024-03-03T01:55:23.625Z,5.44
2024-03-03T01:57:54.424Z,5.36
2024-03-03T02:00:22.888Z,5.29
2024-03-03T02:02:50.717Z,5.18
2024-03-03T02:05:19.904Z,5.16
2024-03-03T02:07:48.214Z,5.10
2024-03-03T02:10:17.792Z,5.06
2024-03-03T02:12:48.634Z,5.00
2024-03-03T02:15:15.748Z,4.94
2024-03-03T02:17:42.473Z,4.93
2024-03-03T02:20:10.446Z,4.88
2024-03-03T02:22:38.080Z,4.81
2024-03-03T02:25:09.794Z,4.77
2024-03-03T02:27:39.301Z,4.66
2024-03-03T02:30:07.134Z,4.65
2024-03-03T02:32:33.871Z,4.64
2024-03-03T02:35:00.638Z,4.68
2024-03-03T02:37:27.343Z,4.70
2024-03-03T02:39:54.251Z,4.69
2024-03-03T02:42:21.092Z,4.71
2024-03-03T02:44:47.800Z,4.58
2024-03-03T02:47:15.590Z,4.61
2024-03-03T02:49:47.293Z,4.57
2024-03-03T02:52:15.677Z,4.65
2024-03-03T02:54:42.670Z,4.65
2024-03-03T02:57:09.775Z,4.69
2024-03-03T02:59:36.478Z,4.74
2024-03-03T03:02:03.443Z,4.78
2024-03-03T03:04:33.155Z,4.85
2024-03-03T03:07:00.278Z,4.87
2024-03-03T03:09:26.989Z,4.91
2024-03-03T03:11:58.892Z,4.91
2024-03-03T03:14:25.634Z,4.96
2024-03-03T03:16:53.029Z,4.97
2024-03-03T03:19:21.898Z,4.92
2024-03-03T03:21:48.936Z,4.89
2024-03-03T03:24:15.689Z,4.84
2024-03-03T03:26:47.036Z,4.76
2024-03-03T03:29:13.731Z,4.71
2024-03-03T03:31:40.860Z,4.64
2024-03-03T03:34:08.640Z,4.59
2024-03-03T03:36:36.062Z,4.62
2024-03-03T03:39:11.364Z,4.60
2024-03-03T03:41:48.352Z,4.59
2024-03-03T03:44:15.720Z,4.55
2024-03-03T03:46:45.993Z,4.52
2024-03-03T03:49:15.009Z,4.47
2024-03-03T03:51:42.642Z,4.46
2024-03-03T03:54:09.627Z,4.38
2024-03-03T03:56:37.248Z,4.31
2024-03-03T03:59:07.169Z,4.31
2024-03-03T04:01:34.188Z,4.28
2024-03-03T04:04:01.165Z,4.18
2024-03-03T04:06:30.324Z,4.16
2024-03-03T04:08:57.069Z,4.17
2024-03-03T04:11:24.902Z,4.15
2024-03-03T04:13:51.886Z,4.02
2024-03-03T04:16:22.412Z,3.94
2024-03-03T04:18:49.363Z,3.89
2024-03-03T04:21:16.312Z,3.86
2024-03-03T04:23:45.110Z,3.77
2024-03-03T04:26:14.045Z,3.68
2024-03-03T04:28:40.713Z,3.71
2024-03-03T04:31:08.266Z,3.77
2024-03-03T04:33:35.497Z,3.77
2024-03-03T04:36:11.505Z,3.82
2024-03-03T04:38:41.578Z,3.82
2024-03-03T04:41:20.521Z,3.88
2024-03-03T04:43:48.246Z,3.86
2024-03-03T04:46:15.498Z,3.87
2024-03-03T04:48:43.376Z,3.92
2024-03-03T04:51:10.260Z,3.92
2024-03-03T04:53:37.959Z,3.99
2024-03-03T04:56:05.619Z,4.01
2024-03-03T04:58:35.482Z,4.05
2024-03-03T05:01:02.536Z,4.06
2024-03-03T05:03:31.501Z,4.09
2024-03-03T05:06:01.107Z,4.05
2024-03-03T05:08:27.766Z,4.08
2024-03-03T05:10:54.888Z,4.09
2024-03-03T05:13:25.840Z,4.07
2024-03-03T05:15:52.817Z,4.03
2024-03-03T05:18:20.111Z,4.01
2024-03-03T05:20:50.140Z,4.01
2024-03-03T05:23:17.019Z,3.98
2024-03-03T05:25:43.989Z,3.95
2024-03-03T05:28:10.689Z,3.92
2024-03-03T05:30:39.967Z,3.90
2024-03-03T05:33:08.515Z,3.85
2024-03-03T05:35:37.438Z,3.87
2024-03-03T05:38:04.226Z,3.85
2024-03-03T05:40:31.299Z,3.83
2024-03-03T05:42:58.075Z,3.84
2024-03-03T05:45:25.131Z,3.86
2024-03-03T05:47:51.954Z,3.93
2024-03-03T05:50:18.894Z,3.97
2024-03-03T05:52:46.112Z,4.04
2024-03-03T05:55:12.969Z,4.08
2024-03-03T05:57:39.662Z,4.07
2024-03-03T06:00:07.308Z,4.02
2024-03-03T06:02:34.055Z,4.04
2024-03-03T06:05:05.964Z,4.04
2024-03-03T06:07:34.631Z,3.99
2024-03-03T06:10:02.183Z,4.00
2024-03-03T06:12:28.920Z,4.03
2024-03-03T06:14:56.765Z,4.10
2024-03-03T06:17:23.451Z,4.09
2024-03-03T06:19:50.386Z,4.01
2024-03-03T06:22:20.111Z,4.00
2024-03-03T06:24:48.519Z,4.00
2024-03-03T06:27:15.290Z,4.07
2024-03-03T06:29:42.043Z,4.13
2024-03-03T06:32:08.862Z,4.16
2024-03-03T06:34:35.703Z,4.20
2024-03-03T06:37:02.574Z,4.21
2024-03-03T06:39:29.705Z,4.27
2024-03-03T06:41:59.513Z,4.42
2024-03-03T06:44:34.347Z,4.55
2024-03-03T06:47:02.004Z,4.70
2024-03-03T06:49:29.070Z,4.87
2024-03-03T06:51:57.230Z,5.04
2024-03-03T06:54:24.154Z,5.05
2024-03-03T06:56:50.839Z,4.92
2024-03-03T06:59:17.624Z,5.07
2024-03-03T07:01:51.586Z,5.11
2024-03-03T07:04:18.576Z,5.22
2024-03-03T07:06:45.366Z,5.37
2024-03-03T07:09:12.128Z,5.53
2024-03-03T07:11:38.891Z,5.77
2024-03-03T07:14:05.771Z,6.05
2024-03-03T07:16:32.708Z,6.29
2024-03-03T07:19:00.501Z,6.50
2024-03-03T07:21:28.071Z,6.67
2024-03-03T07:23:54.860Z,6.77
2024-03-03T07:26:21.616Z,6.75
2024-03-03T07:28:48.988Z,6.89
2024-03-03T07:31:15.666Z,7.05
2024-03-03T07:33:42.483Z,7.27
2024-03-03T07:36:09.284Z,7.50
2024-03-03T07:38:36.881Z,7.69
2024-03-03T07:41:03.764Z,7.90
2024-03-03T07:43:31.482Z,8.03
2024-03-03T07:45:58.379Z,8.06
2024-03-03T07:48:25.599Z,8.04
2024-03-03T07:50:53.338Z,8.33
2024-03-03T07:53:21.267Z,8.55
2024-03-03T07:55:49.324Z,8.64
2024-03-03T07:58:16.305Z,8.65
2024-03-03T08:00:43.650Z,8.77
2024-03-03T08:03:14.040Z,8.71
2024-03-03T08:05:40.901Z,8.84
2024-03-03T08:08:08.313Z,9.17
2024-03-03T08:10:35.993Z,9.52
2024-03-03T08:13:04.671Z,9.56
2024-03-03T08:15:31.416Z,9.71
2024-03-03T08:18:01.726Z,9.98
2024-03-03T08:20:29.669Z,10.13
2024-03-03T08:22:58.524Z,10.14
2024-03-03T08:25:31.830Z,10.18
2024-03-03T08:28:04.171Z,10.41
2024-03-03T08:30:31.954Z,10.59
2024-03-03T08:33:01.363Z,10.72
2024-03-03T08:35:28.144Z,10.90
2024-03-03T08:37:57.147Z,11.07
2024-03-03T08:40:25.139Z,11.03
2024-03-03T08:42:52.237Z,11.08
2024-03-03T08:45:19.000Z,11.30
2024-03-03T08:47:45.792Z,11.31
2024-03-03T08:50:12.538Z,11.42
2024-03-03T08:52:40.714Z,11.45
2024-03-03T08:55:07.847Z,11.17
2024-03-03T08:57:35.389Z,11.12
2024-03-03T09:00:03.261Z,11.12
2024-03-03T09:02:30.032Z,11.00
2024-03-03T09:05:06.508Z,11.15
2024-03-03T09:07:33.696Z,11.26
2024-03-03T09:10:00.615Z,11.10
2024-03-03T09:12:29.106Z,10.61
2024-03-03T09:14:55.858Z,10.43
2024-03-03T09:17:22.704Z,10.77
2024-03-03T09:19:49.715Z,11.08
2024-03-03T09:22:19.785Z,10.84
2024-03-03T09:24:48.028Z,11.14
2024-03-03T09:27:15.785Z,11.11
2024-03-03T09:29:43.564Z,11.20
2024-03-03T09:32:11.183Z,11.39
2024-03-03T09:34:38.315Z,11.43
2024-03-03T09:37:08.459Z,11.51
2024-03-03T09:39:35.458Z,11.48
2024-03-03T09:42:03.828Z,11.59
2024-03-03T09:44:48.720Z,11.96
2024-03-03T09:47:18.436Z,11.87
2024-03-03T09:49:49.841Z,11.62
2024-03-03T09:52:21.735Z,11.49
2024-03-03T09:54:51.878Z,11.30
2024-03-03T09:57:19.486Z,11.54
2024-03-03T09:59:52.752Z,11.62
2024-03-03T10:02:27.115Z,11.63
2024-03-03T10:04:58.503Z,11.73
2024-03-03T10:07:27.535Z,11.91
2024-03-03T10:10:07.434Z,12.04
2024-03-03T10:12:35.246Z,12.00
2024-03-03T10:15:09.872Z,11.85
2024-03-03T10:20:29.190Z,11.97
2024-03-03T10:22:57.646Z,11.87
2024-03-03T10:25:25.983Z,11.93
2024-03-03T10:27:54.401Z,12.09
2024-03-03T10:30:30.955Z,12.60
2024-03-03T10:33:08.050Z,12.41
2024-03-03T10:35:38.521Z,12.36
2024-03-03T10:38:05.679Z,12.67
2024-03-03T10:40:35.464Z,12.95
2024-03-03T10:43:02.501Z,12.87
2024-03-03T10:45:32.869Z,12.95
2024-03-03T10:48:03.499Z,13.26
2024-03-03T10:50:53.475Z,13.29
2024-03-03T10:53:23.460Z,13.35
2024-03-03T10:55:55.282Z,13.29
2024-03-03T10:58:25.082Z,13.54
2024-03-03T11:00:57.075Z,13.64
2024-03-03T11:03:30.191Z,13.81
2024-03-03T11:05:58.595Z,13.81
2024-03-03T11:08:28.233Z,13.62
2024-03-03T11:11:04.009Z,13.59
2024-03-03T11:13:33.348Z,13.64
2024-03-03T11:16:04.049Z,13.53
2024-03-03T11:18:44.233Z,13.55
2024-03-03T11:24:08.026Z,13.72
2024-03-03T11:26:41.623Z,13.75
2024-03-03T11:29:10.070Z,13.60
2024-03-03T11:31:42.389Z,13.67
2024-03-03T11:34:15.329Z,13.50
2024-03-03T11:36:43.663Z,13.26
2024-03-03T11:39:15.209Z,13.29
2024-03-03T11:41:45.162Z,13.28
2024-03-03T11:44:53.497Z,13.40
2024-03-03T11:47:30.757Z,13.44
2024-03-03T11:50:02.928Z,13.53
2024-03-03T11:52:53.561Z,13.81
2024-03-03T11:55:26.065Z,13.92
2024-03-03T11:57:56.788Z,14.07
2024-03-03T12:00:26.099Z,14.34
2024-03-03T12:02:56.448Z,14.39
2024-03-03T12:05:24.624Z,14.40
2024-03-03T12:07:56.570Z,14.29
2024-03-03T12:10:31.096Z,14.10
2024-03-03T12:13:12.298Z,14.04
2024-03-03T12:15:38.966Z,13.87
2024-03-03T12:18:19.963Z,13.94
2024-03-03T12:22:05.138Z,13.78
2024-03-03T12:25:03.776Z,13.94
2024-03-03T12:27:38.037Z,13.87
2024-03-03T12:30:53.646Z,13.89
2024-03-03T12:33:39.269Z,14.01
2024-03-03T12:45:44.551Z,14.01
2024-03-03T12:48:17.148Z,13.90
2024-03-03T12:51:21.877Z,13.69
2024-03-03T12:56:52.748Z,13.42
2024-03-03T13:03:39.460Z,13.61
2024-03-03T13:21:54.882Z,13.65
2024-03-03T13:28:42.505Z,13.67
2024-03-03T13:34:02.191Z,13.55
2024-03-03T13:36:43.820Z,13.51
2024-03-03T13:59:40.096Z,13.21
2024-03-03T14:02:30.512Z,13.01
2024-03-03T14:08:10.778Z,13.17
2024-03-03T14:10:46.724Z,13.03
2024-03-03T14:13:20.346Z,12.87
2024-03-03T14:15:50.251Z,12.60
2024-03-03T14:28:20.805Z,12.91
2024-03-03T14:47:08.507Z,12.23
2024-03-03T14:52:53.002Z,12.08
2024-03-03T14:55:25.100Z,11.99
2024-03-03T14:58:20.793Z,11.84
2024-03-03T15:01:16.792Z,11.73
2024-03-03T15:04:23.044Z,11.70
2024-03-03T15:49:55.745Z,10.21
2024-03-03T15:52:23.174Z,10.08
2024-03-03T15:54:49.960Z,10.19
2024-03-03T15:57:57.190Z,10.09
2024-03-03T16:00:23.990Z,9.88
2024-03-03T16:03:11.086Z,9.80
2024-03-03T16:05:44.057Z,9.68
2024-03-03T16:11:40.854Z,9.48
2024-03-03T16:14:47.685Z,9.45
2024-03-03T16:18:07.554Z,9.36
2024-03-03T16:21:00.500Z,9.30
2024-03-03T16:24:07.158Z,9.20
2024-03-03T16:27:56.990Z,9.09
2024-03-03T16:30:28.701Z,8.85
2024-03-03T16:33:20.717Z,8.76
2024-03-03T16:36:18.379Z,8.73
2024-03-03T16:39:46.557Z,8.70
2024-03-03T16:42:14.572Z,8.68
2024-03-03T17:24:06.629Z,7.59
2024-03-03T17:43:12.630Z,7.32
2024-03-03T18:00:07.438Z,6.85
2024-03-03T18:03:02.322Z,6.68
2024-03-03T18:05:52.611Z,6.64
2024-03-03T18:08:39.218Z,6.49
2024-03-03T18:17:02.838Z,6.31
2024-03-03T18:19:49.393Z,6.27
2024-03-03T18:22:47.332Z,6.19
2024-03-03T18:25:54.862Z,6.18
2024-03-03T18:28:30.755Z,6.18
2024-03-03T18:31:33.494Z,6.16
2024-03-03T18:34:00.299Z,6.06
2024-03-03T18:36:54.913Z,6.04
2024-03-03T18:40:07.604Z,6.05
2024-03-03T18:42:54.300Z,6.04
2024-03-03T18:45:23.080Z,5.99
2024-03-03T18:48:14.784Z,5.97
2024-03-03T18:57:18.537Z,5.72
2024-03-03T18:59:45.282Z,5.64
2024-03-03T19:03:24.133Z,5.61
2024-03-03T19:06:23.337Z,5.54
2024-03-03T19:11:38.272Z,5.40
2024-03-03T19:14:30.855Z,5.35
2024-03-03T19:17:27.568Z,5.27
2024-03-03T19:19:57.740Z,5.20
2024-03-03T19:22:27.101Z,5.16
2024-03-03T19:24:57.071Z,5.07
2024-03-03T19:30:52.588Z,4.97
2024-03-03T19:33:55.070Z,4.86
2024-03-03T19:36:50.346Z,4.91
2024-03-03T19:39:36.225Z,4.91
2024-03-03T19:45:51.259Z,4.79
2024-03-03T19:48:21.182Z,4.78
2024-03-03T19:51:54.751Z,4.76
2024-03-03T19:54:42.329Z,4.75
2024-03-03T19:57:31.575Z,4.68
2024-03-03T20:00:59.125Z,4.66
2024-03-03T20:03:46.266Z,4.55
2024-03-03T21:13:33.369Z,3.68
2024-03-03T21:22:54.396Z,3.59
2024-03-03T21:25:51.399Z,3.54
2024-03-03T21:32:32.047Z,3.47
2024-03-03T21:34:58.681Z,3.47
2024-03-03T21:37:31.240Z,3.43
2024-03-03T21:39:58.037Z,3.40
2024-03-03T22:26:26.755Z,2.96
2024-03-03T22:29:26.708Z,2.97
2024-03-03T22:34:46.017Z,2.97
2024-03-03T22:40:48.835Z,2.94
2024-03-03T22:43:18.936Z,2.95
2024-03-03T22:51:45.221Z,3.05
2024-03-03T22:54:33.143Z,3.02
2024-03-03T22:57:26.348Z,3.06
2024-03-03T23:02:48.808Z,3.00
2024-03-03T23:35:58.758Z,2.72
2024-03-03T23:38:25.434Z,2.73
2024-03-03T23:40:52.158Z,2.66
2024-03-03T23:46:02.340Z,2.56
2024-03-03T23:49:14.397Z,2.51
2024-03-03T23:52:16.464Z,2.53
2024-03-03T23:55:05.715Z,2.50
2024-03-03T23:57:38.439Z,2.48
